Abdaly, Kuwait

12:51 PM AST on February 12, 2016 (GMT +0300)
Abdally | | Change Station
CLOSE
Current Station
Personal Weather Station
Location: Abdally, JAHRA
Elevation: 46 ft
Nearby Weather Stations

Elev 46 ft 30.03 °N, 47.75 °E | Updated 4 minutes ago

Clear
Clear
64.5 °F
Feels Like 64.5 °F
N
12.0
Wind Variable Wind from WNW
Gusts 25.0 mph

Today
High -- | Low -- °F
--% Chance of Precip.
Yesterday
High -- | Low -- °F
Precip. -- in
Pressure 30.18 in
Visibility -9999.0 miles
Clouds
Dew Point 35 °F
Humidity 33%
Rainfall 0.00 in
Snow Depth Not available.
6:32 AM 5:34 PM
Waxing Crescent, 19% visible
METAR OKBK 120930Z 34015KT CAVOK 19/M00 Q1022 NOSIG
Pressure 30.18 in
Visibility -9999.0 miles
Clouds
Dew Point 35 °F
Humidity 33%
Rainfall 0.00 in
Snow Depth Not available.
6:32 AM 5:34 PM
Waxing Crescent, 19% visible
METAR OKBK 120930Z 34015KT CAVOK 19/M00 Q1022 NOSIG

10-Day Weather Forecast

No radar image for this location.
×

Almanac

Astronomy

Feb. 12, 2016 Rise Set
Actual Time
Civil Twilight
Nautical Twilight
Astronomical Twilight
Moon
Length of Visible Light
Length of Day
Tomorrow will be .
, % of the Moon is Illuminated

Today's Extremes

Country Highs Country Lows

Community

WunderPhotos

Upload Photos

1,892,286 photos uploaded!

WunderBlog® & News

Nearby

Air Quality

  Air Quality AQ Index Pollutant
Not available.

Snow Depth

Station Depth Elevation

Earthquake Activity

City Distance Mag. Time & Date
Minimum magnitude displayed is 2.5.

Coastal Water Temperatures

Place Temperature

Stations

Nearby Weather Stations

Station Location Temp. Windchill Dew Point Humidity Wind Precip. Elev Updated Type